createdAt,value
2018-03-06T00:01:08.245Z,99.90
2018-03-06T00:03:35.800Z,99.90
2018-03-06T00:06:03.347Z,99.90
2018-03-06T00:08:30.881Z,99.90
2018-03-06T00:10:58.428Z,99.90
2018-03-06T00:13:25.997Z,99.90
2018-03-06T00:15:53.515Z,99.90
2018-03-06T00:18:21.094Z,99.90
2018-03-06T00:20:48.600Z,99.90
2018-03-06T00:23:16.136Z,99.90
2018-03-06T00:25:44.460Z,99.90
2018-03-06T00:28:11.990Z,99.90
2018-03-06T00:30:39.619Z,99.90
2018-03-06T00:33:07.918Z,99.90
2018-03-06T00:35:35.438Z,99.90
2018-03-06T00:38:02.997Z,99.90
2018-03-06T00:40:30.542Z,99.90
2018-03-06T00:42:58.078Z,99.90
2018-03-06T00:45:25.605Z,99.90
2018-03-06T00:47:53.150Z,99.90
2018-03-06T00:50:20.707Z,99.90
2018-03-06T00:52:48.227Z,99.90
2018-03-06T00:55:15.762Z,99.90
2018-03-06T00:57:44.031Z,99.90
2018-03-06T01:00:12.325Z,99.90
2018-03-06T01:02:39.871Z,99.90
2018-03-06T01:05:07.434Z,99.90
2018-03-06T01:07:35.728Z,99.90
2018-03-06T01:10:03.267Z,99.90
2018-03-06T01:12:30.827Z,99.90
2018-03-06T01:14:59.126Z,99.90
2018-03-06T01:17:26.643Z,99.90
2018-03-06T01:19:54.195Z,99.90
2018-03-06T01:22:21.725Z,99.90
2018-03-06T01:24:49.255Z,99.90
2018-03-06T01:27:16.816Z,99.90
2018-03-06T01:29:45.124Z,99.90
2018-03-06T01:32:12.658Z,99.90
2018-03-06T01:34:40.173Z,99.90
2018-03-06T01:37:07.744Z,99.90
2018-03-06T01:39:35.287Z,99.90
2018-03-06T01:42:02.807Z,99.90
2018-03-06T01:44:30.366Z,99.90
2018-03-06T01:46:57.917Z,99.90
2018-03-06T01:49:25.455Z,99.90
2018-03-06T01:51:58.947Z,99.90
2018-03-06T01:54:26.497Z,99.90
2018-03-06T01:56:54.019Z,99.90
2018-03-06T01:59:21.544Z,99.90
2018-03-06T02:01:49.854Z,99.90
2018-03-06T02:04:17.400Z,99.90
2018-03-06T02:06:44.929Z,99.90
2018-03-06T02:09:13.344Z,99.90
2018-03-06T02:11:40.887Z,99.90
2018-03-06T02:14:08.412Z,99.90
2018-03-06T02:16:35.954Z,99.90
2018-03-06T02:19:03.489Z,99.90
2018-03-06T02:21:31.020Z,99.90
2018-03-06T02:23:58.568Z,99.90
2018-03-06T02:26:26.874Z,99.90
2018-03-06T02:28:54.971Z,99.90
2018-03-06T02:31:22.547Z,99.90
2018-03-06T02:33:50.084Z,99.90
2018-03-06T02:36:17.634Z,99.90
2018-03-06T02:38:45.208Z,99.90
2018-03-06T02:41:12.764Z,99.90
2018-03-06T02:43:40.302Z,99.90
2018-03-06T02:46:10.664Z,99.90
2018-03-06T02:48:38.210Z,99.90
2018-03-06T02:51:05.734Z,99.90
2018-03-06T02:53:34.023Z,99.90
2018-03-06T02:56:01.557Z,99.90
2018-03-06T02:58:29.096Z,99.90
2018-03-06T03:00:56.643Z,99.90
2018-03-06T03:03:24.260Z,99.90
2018-03-06T03:05:51.797Z,99.90
2018-03-06T03:08:19.341Z,99.90
2018-03-06T03:10:46.896Z,99.90
2018-03-06T03:13:14.413Z,99.90
2018-03-06T03:15:41.930Z,99.90
2018-03-06T03:18:09.478Z,99.90
2018-03-06T03:20:37.048Z,99.90
2018-03-06T03:23:04.576Z,99.90
2018-03-06T03:25:32.092Z,99.90
2018-03-06T03:27:59.610Z,99.90
2018-03-06T03:30:27.161Z,99.90
2018-03-06T03:32:54.700Z,99.90
2018-03-06T03:35:22.329Z,99.90
2018-03-06T03:37:49.867Z,99.90
2018-03-06T03:40:17.410Z,99.90
2018-03-06T03:42:44.950Z,99.90
2018-03-06T03:45:12.474Z,99.90
2018-03-06T03:47:40.088Z,99.90
2018-03-06T03:50:07.613Z,99.90
2018-03-06T03:52:35.176Z,99.90
2018-03-06T03:55:02.715Z,99.90
2018-03-06T03:57:30.243Z,99.90
2018-03-06T03:59:58.537Z,99.90
2018-03-06T04:02:26.072Z,99.90
2018-03-06T04:04:53.616Z,99.90
2018-03-06T04:07:21.247Z,99.90
2018-03-06T04:09:48.784Z,99.90
2018-03-06T04:12:16.321Z,99.90
2018-03-06T04:14:43.855Z,99.90
2018-03-06T04:17:11.604Z,99.90
2018-03-06T04:19:39.160Z,99.90
2018-03-06T04:22:06.670Z,99.90
2018-03-06T04:24:34.223Z,99.90
2018-03-06T04:27:01.752Z,99.90
2018-03-06T04:29:29.258Z,99.90
2018-03-06T04:49:15.185Z,99.90
2018-03-06T04:51:42.702Z,99.90
2018-03-06T04:54:10.244Z,99.90
2018-03-06T04:56:37.781Z,99.90
2018-03-06T04:59:05.310Z,99.90
2018-03-06T05:01:32.915Z,99.90
2018-03-06T05:04:00.439Z,99.90
2018-03-06T05:06:27.967Z,99.90
2018-03-06T05:08:55.558Z,99.90
2018-03-06T05:11:23.078Z,99.90
2018-03-06T05:13:50.637Z,99.90
2018-03-06T05:16:18.198Z,99.90
2018-03-06T05:18:45.732Z,99.90
2018-03-06T05:21:13.278Z,99.90
2018-03-06T05:23:40.839Z,99.90
2018-03-06T05:26:08.371Z,99.90
2018-03-06T05:28:35.920Z,99.90
2018-03-06T05:31:04.210Z,99.90
2018-03-06T05:33:32.506Z,99.90
2018-03-06T05:36:00.078Z,99.90
2018-03-06T05:38:27.757Z,99.90
2018-03-06T05:40:55.264Z,99.90
2018-03-06T05:43:23.580Z,99.90
2018-03-06T05:45:51.148Z,99.90
2018-03-06T05:48:19.524Z,99.90
2018-03-06T05:50:47.043Z,99.90
2018-03-06T05:53:14.600Z,99.90
2018-03-06T05:55:42.936Z,99.90
2018-03-06T05:58:10.522Z,99.90
2018-03-06T06:00:38.050Z,99.90
2018-03-06T06:03:05.600Z,99.90
2018-03-06T06:05:33.179Z,99.90
2018-03-06T06:08:00.717Z,99.90
2018-03-06T06:10:28.264Z,99.90
2018-03-06T06:12:55.804Z,99.90
2018-03-06T06:15:24.132Z,99.90
2018-03-06T06:17:51.722Z,99.90
2018-03-06T06:20:19.300Z,99.90
2018-03-06T06:22:46.820Z,99.90
2018-03-06T06:25:14.388Z,99.90
2018-03-06T06:27:41.900Z,99.90
2018-03-06T06:30:10.259Z,99.90
2018-03-06T06:32:37.797Z,99.90
2018-03-06T06:35:05.355Z,99.90
2018-03-06T06:37:33.163Z,99.90
2018-03-06T06:40:01.010Z,99.90
2018-03-06T06:42:28.785Z,99.90
2018-03-06T06:44:56.348Z,99.90
2018-03-06T06:47:24.681Z,99.90
2018-03-06T06:49:53.217Z,99.90
2018-03-06T06:52:20.916Z,99.90
2018-03-06T06:54:48.440Z,99.90
2018-03-06T06:57:15.977Z,99.90
2018-03-06T06:59:43.485Z,99.90
2018-03-06T07:02:11.007Z,99.90
2018-03-06T07:04:39.297Z,99.90
2018-03-06T07:07:07.561Z,99.90
2018-03-06T07:09:35.910Z,99.90
2018-03-06T07:12:03.442Z,99.90
2018-03-06T07:14:30.961Z,99.90
2018-03-06T07:16:59.315Z,99.90
2018-03-06T07:19:26.862Z,99.90
2018-03-06T07:21:55.152Z,99.90
2018-03-06T07:24:22.704Z,99.90
2018-03-06T07:26:50.234Z,99.90
2018-03-06T07:29:17.763Z,99.90
2018-03-06T07:31:46.052Z,99.90
2018-03-06T07:34:14.944Z,99.90
2018-03-06T07:36:42.469Z,99.90
2018-03-06T07:39:09.979Z,99.90
2018-03-06T07:41:37.495Z,99.90
2018-03-06T07:44:05.798Z,99.90
2018-03-06T07:46:33.330Z,99.90
2018-03-06T07:49:00.851Z,99.90
2018-03-06T07:51:28.427Z,99.90
2018-03-06T07:53:55.935Z,99.90
2018-03-06T07:56:23.981Z,99.90
2018-03-06T07:58:51.503Z,99.90
2018-03-06T08:01:19.072Z,99.90
2018-03-06T08:03:46.607Z,99.90
2018-03-06T08:06:14.139Z,99.90
2018-03-06T08:08:43.422Z,99.90
2018-03-06T08:11:11.697Z,99.90
2018-03-06T08:13:39.983Z,99.90
2018-03-06T08:16:08.268Z,99.90
2018-03-06T08:18:35.794Z,99.90
2018-03-06T08:21:03.319Z,99.90
2018-03-06T08:23:30.857Z,99.90
2018-03-06T08:25:58.365Z,99.90
2018-03-06T08:28:25.906Z,99.90
2018-03-06T08:30:53.447Z,99.90
2018-03-06T08:33:20.969Z,99.90
2018-03-06T08:35:49.287Z,99.90
2018-03-06T08:38:16.807Z,99.90
2018-03-06T08:40:45.135Z,99.90
2018-03-06T08:43:12.705Z,99.90
2018-03-06T08:45:40.248Z,99.90
2018-03-06T08:48:07.778Z,99.90
2018-03-06T08:50:35.292Z,99.90
2018-03-06T08:53:02.821Z,99.90
2018-03-06T08:55:30.457Z,99.90
2018-03-06T08:57:58.778Z,99.90
2018-03-06T09:00:26.294Z,99.90
2018-03-06T09:02:53.811Z,99.90
2018-03-06T09:05:21.375Z,99.90
2018-03-06T09:07:48.872Z,99.90
2018-03-06T09:10:16.425Z,99.90
2018-03-06T09:12:44.753Z,99.90
2018-03-06T09:15:12.292Z,99.90
2018-03-06T09:17:39.815Z,99.90
2018-03-06T09:20:07.326Z,99.90
2018-03-06T09:22:34.849Z,99.90
2018-03-06T09:25:03.120Z,99.90
2018-03-06T09:27:30.716Z,99.90
2018-03-06T09:29:58.217Z,99.90
2018-03-06T09:32:25.747Z,99.90
2018-03-06T09:34:53.285Z,99.90
2018-03-06T09:37:20.922Z,99.90
2018-03-06T09:39:48.663Z,99.90
2018-03-06T09:42:16.255Z,99.90
2018-03-06T09:44:43.850Z,99.90
2018-03-06T09:47:11.397Z,99.90
2018-03-06T09:49:38.967Z,99.90
2018-03-06T09:52:06.481Z,99.90
2018-03-06T09:54:34.812Z,99.90
2018-03-06T09:57:02.366Z,99.90
2018-03-06T09:59:29.879Z,99.90
2018-03-06T10:01:57.457Z,99.80
2018-03-06T10:04:25.404Z,98.60
2018-03-06T10:06:53.278Z,98.10
2018-03-06T10:09:21.752Z,98.50
2018-03-06T10:11:49.411Z,98.40
2018-03-06T10:14:16.923Z,98.20
2018-03-06T10:16:44.538Z,97.30
2018-03-06T10:19:13.008Z,95.50
2018-03-06T10:21:40.570Z,95.50
2018-03-06T10:24:09.362Z,94.90
2018-03-06T10:26:36.915Z,95.90
2018-03-06T10:29:04.466Z,94.70
2018-03-06T10:31:32.011Z,94.20
2018-03-06T10:33:59.568Z,93.50
2018-03-06T10:36:29.889Z,92.60
2018-03-06T10:38:58.646Z,94.50
2018-03-06T10:41:26.364Z,95.40
2018-03-06T10:43:54.065Z,93.90
2018-03-06T10:46:21.559Z,93.60
2018-03-06T10:48:49.064Z,93.70
2018-03-06T10:51:16.574Z,92.70
2018-03-06T10:53:44.097Z,91.90
2018-03-06T10:56:28.101Z,93.20
2018-03-06T10:58:55.653Z,92.60
2018-03-06T11:01:25.085Z,91.30
2018-03-06T11:03:52.606Z,89.40
2018-03-06T11:06:20.123Z,89.20
2018-03-06T11:08:48.418Z,87.60
2018-03-06T11:11:15.947Z,87.60
2018-03-06T11:13:43.476Z,86.60
2018-03-06T11:16:11.047Z,82.20
2018-03-06T11:18:38.568Z,81.70
2018-03-06T11:21:06.118Z,81.10
2018-03-06T11:23:33.647Z,80.10
2018-03-06T11:26:01.158Z,79.20
2018-03-06T11:28:28.698Z,76.90
2018-03-06T11:30:56.238Z,75.70
2018-03-06T11:33:23.756Z,72.80
2018-03-06T11:35:51.288Z,69.20
2018-03-06T11:38:18.876Z,70.30
2018-03-06T11:40:46.392Z,70.40
2018-03-06T11:43:13.894Z,70.20
2018-03-06T11:45:41.415Z,70.80
2018-03-06T11:48:08.954Z,72.50
2018-03-06T11:50:37.228Z,72.30
2018-03-06T11:53:05.607Z,73.60
2018-03-06T11:55:33.966Z,72.00
2018-03-06T11:58:01.485Z,72.00
2018-03-06T12:00:29.030Z,72.80
2018-03-06T12:02:56.573Z,70.50
2018-03-06T12:05:24.862Z,68.00
2018-03-06T12:07:52.384Z,68.00
2018-03-06T12:10:19.966Z,66.70
2018-03-06T12:12:48.231Z,67.10
2018-03-06T12:15:15.752Z,67.10
2018-03-06T12:17:43.269Z,69.00
2018-03-06T12:20:11.568Z,65.00
2018-03-06T12:22:39.108Z,64.90
2018-03-06T12:25:06.626Z,64.10
2018-03-06T12:27:34.147Z,66.60
2018-03-06T12:30:01.759Z,66.70
2018-03-06T12:32:29.257Z,65.00
2018-03-06T12:34:56.812Z,65.90
2018-03-06T12:37:24.347Z,66.00
2018-03-06T12:39:52.174Z,68.60
2018-03-06T12:42:19.682Z,67.70
2018-03-06T12:44:47.238Z,68.30
2018-03-06T12:47:15.559Z,64.40
2018-03-06T12:49:43.145Z,64.30
2018-03-06T12:52:13.180Z,63.60
2018-03-06T12:54:40.752Z,66.10
2018-03-06T12:57:08.257Z,67.70
2018-03-06T12:59:35.804Z,71.30
2018-03-06T13:02:03.326Z,71.40
2018-03-06T13:04:31.596Z,70.30
2018-03-06T13:06:59.121Z,70.30
2018-03-06T13:09:26.639Z,69.80
2018-03-06T13:11:54.152Z,71.60
2018-03-06T13:14:21.727Z,71.60
2018-03-06T13:16:49.237Z,71.00
2018-03-06T13:19:16.743Z,71.00
2018-03-06T13:21:44.246Z,70.70
2018-03-06T13:24:11.759Z,70.70
2018-03-06T13:26:39.262Z,69.50
2018-03-06T13:29:06.787Z,70.00
2018-03-06T13:31:34.314Z,69.60
2018-03-06T13:34:01.994Z,69.70
2018-03-06T13:36:29.524Z,69.30
2018-03-06T13:38:57.059Z,67.70
2018-03-06T13:41:25.775Z,68.80
2018-03-06T13:43:53.280Z,69.10
2018-03-06T13:46:20.832Z,70.00
2018-03-06T13:48:50.459Z,69.40
2018-03-06T13:51:19.054Z,68.50
2018-03-06T13:53:47.330Z,66.20
2018-03-06T13:56:15.759Z,66.90
2018-03-06T13:58:43.298Z,66.90
2018-03-06T14:01:10.972Z,67.70
2018-03-06T14:03:38.530Z,68.70
2018-03-06T14:06:06.091Z,69.00
2018-03-06T14:08:33.644Z,69.90
2018-03-06T14:28:18.627Z,73.30
2018-03-06T14:30:46.159Z,73.40
2018-03-06T14:33:13.674Z,73.90
2018-03-06T14:35:41.209Z,74.40
2018-03-06T14:38:08.775Z,74.20
2018-03-06T14:40:36.370Z,74.80
2018-03-06T14:43:03.885Z,76.00
2018-03-06T14:45:31.403Z,76.60
2018-03-06T14:47:58.939Z,77.80
2018-03-06T14:50:26.457Z,78.10
2018-03-06T14:52:53.986Z,80.20
2018-03-06T14:55:21.515Z,81.60
2018-03-06T14:57:49.047Z,83.10
2018-03-06T15:00:16.632Z,83.80
2018-03-06T15:02:44.903Z,87.00
2018-03-06T15:05:12.432Z,87.00
2018-03-06T15:07:40.004Z,87.90
2018-03-06T15:10:07.528Z,89.20
2018-03-06T15:12:35.819Z,90.30
2018-03-06T15:15:03.333Z,90.30
2018-03-06T15:17:31.025Z,90.70
2018-03-06T15:19:58.549Z,90.40
2018-03-06T15:22:26.089Z,90.50
2018-03-06T15:24:53.605Z,91.20
2018-03-06T15:27:21.118Z,91.40
2018-03-06T15:29:48.844Z,91.50
2018-03-06T15:32:16.361Z,91.40
2018-03-06T15:34:43.902Z,91.10
2018-03-06T15:37:11.418Z,92.00
2018-03-06T15:39:38.947Z,92.00
2018-03-06T15:42:06.487Z,92.20
2018-03-06T15:44:34.193Z,92.80
2018-03-06T15:47:02.476Z,93.20
2018-03-06T15:49:30.012Z,93.20
2018-03-06T15:51:57.538Z,94.30
2018-03-06T15:54:25.051Z,94.30
2018-03-06T15:56:52.575Z,94.60
2018-03-06T15:59:20.111Z,95.10
2018-03-06T16:01:47.616Z,95.50
2018-03-06T16:04:15.928Z,96.40
2018-03-06T16:06:43.462Z,96.00
2018-03-06T16:09:11.029Z,96.80
2018-03-06T16:11:38.546Z,96.80
2018-03-06T16:14:06.099Z,97.60
2018-03-06T16:16:33.746Z,99.20
2018-03-06T16:19:01.267Z,99.90
2018-03-06T16:21:28.780Z,99.90
2018-03-06T16:23:56.321Z,99.90
2018-03-06T16:26:23.849Z,99.90
2018-03-06T16:28:51.472Z,99.90
2018-03-06T16:31:19.346Z,99.90
2018-03-06T16:33:46.867Z,99.90
2018-03-06T16:36:14.397Z,99.90
2018-03-06T16:38:41.918Z,99.90
2018-03-06T16:41:09.442Z,99.90
2018-03-06T16:43:37.594Z,99.90
2018-03-06T16:46:05.248Z,99.90
2018-03-06T16:48:32.784Z,99.90
2018-03-06T16:51:01.102Z,99.90
2018-03-06T16:53:28.662Z,99.90
2018-03-06T16:55:56.171Z,99.90
2018-03-06T16:58:23.748Z,99.90
2018-03-06T17:00:52.039Z,99.90
2018-03-06T17:03:19.555Z,99.90
2018-03-06T17:05:47.191Z,99.90
2018-03-06T17:08:14.854Z,99.90
2018-03-06T17:10:42.388Z,99.90
2018-03-06T17:13:09.923Z,99.90
2018-03-06T17:15:38.270Z,99.90
2018-03-06T17:18:05.780Z,99.90
2018-03-06T17:20:33.357Z,99.90
2018-03-06T17:23:00.881Z,99.90
2018-03-06T17:25:29.174Z,99.90
2018-03-06T17:27:57.474Z,99.90
2018-03-06T17:30:25.061Z,99.90
2018-03-06T17:32:52.635Z,99.90
2018-03-06T17:35:20.175Z,99.90
2018-03-06T17:37:47.771Z,99.90
2018-03-06T17:40:15.356Z,99.90
2018-03-06T17:42:42.871Z,99.90
2018-03-06T17:45:10.384Z,99.90
2018-03-06T17:47:37.913Z,99.90
2018-03-06T17:50:06.242Z,99.90
2018-03-06T17:52:33.817Z,99.90
2018-03-06T17:55:01.464Z,99.90
2018-03-06T17:57:29.050Z,99.90
2018-03-06T17:59:56.591Z,99.90
2018-03-06T18:02:24.111Z,99.90
2018-03-06T18:04:52.426Z,99.90
2018-03-06T18:07:20.029Z,99.90
2018-03-06T18:09:47.641Z,99.90
2018-03-06T18:12:17.036Z,99.90
2018-03-06T18:14:44.633Z,99.90
2018-03-06T18:17:12.915Z,99.90
2018-03-06T18:19:40.452Z,99.90
2018-03-06T18:22:08.613Z,99.90
2018-03-06T18:24:36.481Z,99.90
2018-03-06T18:27:04.008Z,99.90
2018-03-06T18:29:32.332Z,99.90
2018-03-06T18:32:00.004Z,99.90
2018-03-06T18:34:27.666Z,99.90
2018-03-06T18:36:55.273Z,99.90
2018-03-06T18:39:28.422Z,99.90
2018-03-06T18:42:15.931Z,99.90
2018-03-06T18:44:44.344Z,99.90
2018-03-06T18:47:11.864Z,99.90
2018-03-06T18:49:51.168Z,99.90
2018-03-06T18:52:18.759Z,99.90
2018-03-06T18:54:46.290Z,99.90
2018-03-06T18:57:14.703Z,99.90
2018-03-06T18:59:42.265Z,99.90
2018-03-06T19:02:21.709Z,99.90
2018-03-06T19:05:01.035Z,99.90
2018-03-06T19:07:28.627Z,99.90
2018-03-06T19:09:56.146Z,99.90
2018-03-06T19:12:24.272Z,99.90
2018-03-06T19:14:51.810Z,99.90
2018-03-06T19:17:19.405Z,99.90
2018-03-06T19:19:46.968Z,99.90
2018-03-06T19:22:15.295Z,99.90
2018-03-06T19:24:42.827Z,99.90
2018-03-06T19:27:10.439Z,99.90
2018-03-06T19:29:39.236Z,99.90
2018-03-06T19:32:06.795Z,99.90
2018-03-06T19:34:34.354Z,99.90
2018-03-06T19:37:02.678Z,99.90
2018-03-06T19:39:30.298Z,99.90
2018-03-06T19:41:58.406Z,99.90
2018-03-06T19:44:26.491Z,99.90
2018-03-06T19:46:54.250Z,99.90
2018-03-06T19:49:21.919Z,99.90
2018-03-06T19:51:49.652Z,99.90
2018-03-06T19:54:18.071Z,99.90
2018-03-06T19:56:45.658Z,99.90
2018-03-06T19:59:13.233Z,99.90
2018-03-06T20:01:40.892Z,99.90
2018-03-06T20:04:08.447Z,99.90
2018-03-06T20:06:36.096Z,99.90
2018-03-06T20:09:03.896Z,99.90
2018-03-06T20:11:31.468Z,99.90
2018-03-06T20:13:59.021Z,99.90
2018-03-06T20:16:27.362Z,99.90
2018-03-06T20:19:00.552Z,99.90
2018-03-06T20:21:28.147Z,99.90
2018-03-06T20:23:55.736Z,99.90
2018-03-06T20:26:23.334Z,99.90
2018-03-06T20:28:51.012Z,99.90
2018-03-06T20:31:24.263Z,99.90
2018-03-06T20:33:51.825Z,99.90
2018-03-06T20:36:19.396Z,99.90
2018-03-06T20:38:52.509Z,99.90
2018-03-06T20:41:20.073Z,99.90
2018-03-06T20:43:47.607Z,99.90
2018-03-06T20:46:20.813Z,99.90
2018-03-06T20:48:48.410Z,99.90
2018-03-06T20:51:15.944Z,99.90
2018-03-06T20:53:49.190Z,99.90
2018-03-06T20:56:18.527Z,99.90
2018-03-06T20:58:46.078Z,99.90
2018-03-06T21:01:13.630Z,99.90
2018-03-06T21:03:41.155Z,99.90
2018-03-06T21:06:08.684Z,99.90
2018-03-06T21:08:36.318Z,99.90
2018-03-06T21:11:04.602Z,99.90
2018-03-06T21:13:32.210Z,99.90
2018-03-06T21:15:59.872Z,99.90
2018-03-06T21:18:27.449Z,99.90
2018-03-06T21:20:54.997Z,99.90
2018-03-06T21:23:22.531Z,99.90
2018-03-06T21:25:50.049Z,99.90
2018-03-06T21:28:17.584Z,99.90
2018-03-06T21:30:45.982Z,99.90
2018-03-06T21:33:13.535Z,99.90
2018-03-06T21:35:41.861Z,99.90
2018-03-06T21:38:09.475Z,99.90
2018-03-06T21:40:37.770Z,99.90
2018-03-06T21:43:05.354Z,99.90
2018-03-06T21:45:32.932Z,99.90
2018-03-06T21:48:00.493Z,99.90
2018-03-06T21:50:28.031Z,99.90
2018-03-06T21:52:55.578Z,99.90
2018-03-06T21:55:23.186Z,99.90
2018-03-06T21:57:50.775Z,99.90
2018-03-06T22:00:18.309Z,99.90
2018-03-06T22:02:45.847Z,99.90
2018-03-06T22:05:13.478Z,99.90
2018-03-06T22:07:41.041Z,99.90
2018-03-06T22:10:08.684Z,99.90
2018-03-06T22:12:36.295Z,99.90
2018-03-06T22:15:03.875Z,99.90
2018-03-06T22:17:31.406Z,99.90
2018-03-06T22:19:58.973Z,99.90
2018-03-06T22:22:26.558Z,99.90
2018-03-06T22:24:54.106Z,99.90
2018-03-06T22:27:21.655Z,99.90
2018-03-06T22:29:49.200Z,99.90
2018-03-06T22:32:16.707Z,99.90
2018-03-06T22:34:44.261Z,99.90
2018-03-06T22:37:11.798Z,99.90
2018-03-06T22:39:39.328Z,99.90
2018-03-06T22:42:06.865Z,99.90
2018-03-06T22:44:34.464Z,99.90
2018-03-06T22:47:01.999Z,99.90
2018-03-06T22:49:29.525Z,99.90
2018-03-06T22:51:57.054Z,99.90
2018-03-06T22:54:24.582Z,99.90
2018-03-06T22:56:52.102Z,99.90
2018-03-06T22:59:19.641Z,99.90
2018-03-06T23:01:47.155Z,99.90
2018-03-06T23:04:14.699Z,99.90
2018-03-06T23:06:42.230Z,99.90
2018-03-06T23:09:09.758Z,99.90
2018-03-06T23:11:37.296Z,99.90
2018-03-06T23:14:04.816Z,99.90
2018-03-06T23:16:33.118Z,99.90
2018-03-06T23:19:00.640Z,99.90
2018-03-06T23:21:28.144Z,99.90
2018-03-06T23:23:55.674Z,99.90
2018-03-06T23:26:23.968Z,99.90
2018-03-06T23:28:52.286Z,99.90
2018-03-06T23:31:19.877Z,99.90
2018-03-06T23:33:47.406Z,99.90
2018-03-06T23:36:15.011Z,99.90
2018-03-06T23:38:43.312Z,99.90
2018-03-06T23:41:10.865Z,99.90
2018-03-06T23:43:38.396Z,99.90
2018-03-06T23:46:05.919Z,99.90
2018-03-06T23:48:33.446Z,99.90
2018-03-06T23:51:00.966Z,99.90
2018-03-06T23:53:28.466Z,99.90
2018-03-06T23:55:56.016Z,99.90
2018-03-06T23:58:23.544Z,99.90
